sensor_id;sensor_type;location;lat;lon;timestamp;P1;durP1;ratioP1;P2;durP2;ratioP2
2480;SDS011;57396;48.742;9.128;2022-07-12T00:00:48;6.00;;;5.40;;
2480;SDS011;57396;48.742;9.128;2022-07-12T00:03:13;9.50;;;4.83;;
2480;SDS011;57396;48.742;9.128;2022-07-12T00:05:38;4.90;;;4.40;;
2480;SDS011;57396;48.742;9.128;2022-07-12T00:08:04;5.90;;;4.67;;
2480;SDS011;57396;48.742;9.128;2022-07-12T00:10:31;5.40;;;4.50;;
2480;SDS011;57396;48.742;9.128;2022-07-12T00:12:57;5.83;;;5.17;;
2480;SDS011;57396;48.742;9.128;2022-07-12T00:15:23;6.17;;;5.20;;
2480;SDS011;57396;48.742;9.128;2022-07-12T00:17:48;4.20;;;3.80;;
2480;SDS011;57396;48.742;9.128;2022-07-12T00:20:14;4.73;;;4.30;;
2480;SDS011;57396;48.742;9.128;2022-07-12T00:22:39;4.27;;;3.87;;
2480;SDS011;57396;48.742;9.128;2022-07-12T00:25:05;5.90;;;4.63;;
2480;SDS011;57396;48.742;9.128;2022-07-12T00:27:31;4.37;;;3.97;;
2480;SDS011;57396;48.742;9.128;2022-07-12T00:29:56;5.17;;;4.67;;
2480;SDS011;57396;48.742;9.128;2022-07-12T00:32:22;4.83;;;4.43;;
2480;SDS011;57396;48.742;9.128;2022-07-12T00:34:47;7.00;;;4.40;;
2480;SDS011;57396;48.742;9.128;2022-07-12T00:37:12;5.20;;;4.70;;
2480;SDS011;57396;48.742;9.128;2022-07-12T00:39:38;5.33;;;4.83;;
2480;SDS011;57396;48.742;9.128;2022-07-12T00:42:03;6.53;;;4.90;;
2480;SDS011;57396;48.742;9.128;2022-07-12T00:44:29;4.97;;;4.47;;
2480;SDS011;57396;48.742;9.128;2022-07-12T00:46:58;4.63;;;4.23;;
2480;SDS011;57396;48.742;9.128;2022-07-12T00:49:24;6.40;;;4.70;;
2480;SDS011;57396;48.742;9.128;2022-07-12T00:51:50;5.30;;;4.60;;
2480;SDS011;57396;48.742;9.128;2022-07-12T00:54:16;6.47;;;4.93;;
2480;SDS011;57396;48.742;9.128;2022-07-12T00:56:42;4.73;;;4.30;;
2480;SDS011;57396;48.742;9.128;2022-07-12T00:59:08;6.83;;;4.60;;
2480;SDS011;57396;48.742;9.128;2022-07-12T01:01:33;4.50;;;4.10;;
2480;SDS011;57396;48.742;9.128;2022-07-12T01:04:00;7.83;;;4.97;;
2480;SDS011;57396;48.742;9.128;2022-07-12T01:06:25;7.10;;;5.20;;
2480;SDS011;57396;48.742;9.128;2022-07-12T01:08:51;6.80;;;5.97;;
2480;SDS011;57396;48.742;9.128;2022-07-12T01:11:17;6.63;;;5.13;;
2480;SDS011;57396;48.742;9.128;2022-07-12T01:13:43;6.37;;;5.77;;
2480;SDS011;57396;48.742;9.128;2022-07-12T01:16:13;4.73;;;4.33;;
2480;SDS011;57396;48.742;9.128;2022-07-12T01:18:39;5.63;;;4.67;;
2480;SDS011;57396;48.742;9.128;2022-07-12T01:21:05;6.70;;;5.13;;
2480;SDS011;57396;48.742;9.128;2022-07-12T01:23:33;5.07;;;4.53;;
2480;SDS011;57396;48.742;9.128;2022-07-12T01:25:59;8.73;;;4.93;;
2480;SDS011;57396;48.742;9.128;2022-07-12T01:28:26;5.93;;;4.90;;
2480;SDS011;57396;48.742;9.128;2022-07-12T01:30:51;6.43;;;5.23;;
2480;SDS011;57396;48.742;9.128;2022-07-12T01:33:16;5.43;;;4.93;;
2480;SDS011;57396;48.742;9.128;2022-07-12T01:35:42;6.93;;;5.00;;
2480;SDS011;57396;48.742;9.128;2022-07-12T01:38:08;5.60;;;4.27;;
2480;SDS011;57396;48.742;9.128;2022-07-12T01:40:34;5.77;;;4.80;;
2480;SDS011;57396;48.742;9.128;2022-07-12T01:43:01;6.00;;;5.37;;
2480;SDS011;57396;48.742;9.128;2022-07-12T01:45:27;6.17;;;5.00;;
2480;SDS011;57396;48.742;9.128;2022-07-12T01:47:52;6.20;;;4.70;;
2480;SDS011;57396;48.742;9.128;2022-07-12T01:50:18;5.07;;;4.67;;
2480;SDS011;57396;48.742;9.128;2022-07-12T01:52:43;17.20;;;4.60;;
2480;SDS011;57396;48.742;9.128;2022-07-12T01:55:09;5.07;;;4.67;;
2480;SDS011;57396;48.742;9.128;2022-07-12T01:57:35;10.80;;;4.67;;
2480;SDS011;57396;48.742;9.128;2022-07-12T02:00:02;5.20;;;4.70;;
2480;SDS011;57396;48.742;9.128;2022-07-12T02:02:30;5.17;;;4.67;;
2480;SDS011;57396;48.742;9.128;2022-07-12T02:04:56;6.87;;;5.80;;
2480;SDS011;57396;48.742;9.128;2022-07-12T02:07:23;5.00;;;4.50;;
2480;SDS011;57396;48.742;9.128;2022-07-12T02:09:49;4.30;;;4.00;;
2480;SDS011;57396;48.742;9.128;2022-07-12T02:12:14;4.43;;;4.13;;
2480;SDS011;57396;48.742;9.128;2022-07-12T02:14:40;4.70;;;4.30;;
2480;SDS011;57396;48.742;9.128;2022-07-12T02:17:05;4.77;;;4.37;;
2480;SDS011;57396;48.742;9.128;2022-07-12T02:19:30;4.57;;;4.17;;
2480;SDS011;57396;48.742;9.128;2022-07-12T02:21:56;7.00;;;5.47;;
2480;SDS011;57396;48.742;9.128;2022-07-12T02:24:21;4.30;;;3.90;;
2480;SDS011;57396;48.742;9.128;2022-07-12T02:26:47;6.77;;;4.23;;
2480;SDS011;57396;48.742;9.128;2022-07-12T02:29:12;4.50;;;4.10;;
2480;SDS011;57396;48.742;9.128;2022-07-12T02:31:38;4.67;;;4.17;;
2480;SDS011;57396;48.742;9.128;2022-07-12T02:34:03;6.27;;;3.83;;
2480;SDS011;57396;48.742;9.128;2022-07-12T02:36:29;4.13;;;3.83;;
2480;SDS011;57396;48.742;9.128;2022-07-12T02:38:55;4.17;;;3.87;;
2480;SDS011;57396;48.742;9.128;2022-07-12T02:41:20;4.13;;;3.40;;
2480;SDS011;57396;48.742;9.128;2022-07-12T02:43:46;5.40;;;4.43;;
2480;SDS011;57396;48.742;9.128;2022-07-12T02:46:12;4.73;;;4.00;;
2480;SDS011;57396;48.742;9.128;2022-07-12T02:48:38;4.30;;;4.00;;
2480;SDS011;57396;48.742;9.128;2022-07-12T02:51:05;4.93;;;4.00;;
2480;SDS011;57396;48.742;9.128;2022-07-12T02:53:31;5.10;;;4.40;;
2480;SDS011;57396;48.742;9.128;2022-07-12T02:55:58;4.37;;;4.07;;
2480;SDS011;57396;48.742;9.128;2022-07-12T02:58:24;4.13;;;3.73;;
2480;SDS011;57396;48.742;9.128;2022-07-12T03:00:49;4.50;;;4.10;;
2480;SDS011;57396;48.742;9.128;2022-07-12T03:03:15;3.93;;;3.63;;
2480;SDS011;57396;48.742;9.128;2022-07-12T03:05:41;4.00;;;3.70;;
2480;SDS011;57396;48.742;9.128;2022-07-12T03:08:07;5.60;;;4.30;;
2480;SDS011;57396;48.742;9.128;2022-07-12T03:10:33;4.50;;;4.10;;
2480;SDS011;57396;48.742;9.128;2022-07-12T03:12:59;5.00;;;4.40;;
2480;SDS011;57396;48.742;9.128;2022-07-12T03:15:25;5.57;;;3.73;;
2480;SDS011;57396;48.742;9.128;2022-07-12T03:17:50;4.17;;;3.80;;
2480;SDS011;57396;48.742;9.128;2022-07-12T03:20:16;5.93;;;4.20;;
2480;SDS011;57396;48.742;9.128;2022-07-12T03:22:42;4.43;;;4.03;;
2480;SDS011;57396;48.742;9.128;2022-07-12T03:25:09;4.20;;;3.90;;
2480;SDS011;57396;48.742;9.128;2022-07-12T03:27:34;3.83;;;3.53;;
2480;SDS011;57396;48.742;9.128;2022-07-12T03:30:00;4.40;;;4.00;;
2480;SDS011;57396;48.742;9.128;2022-07-12T03:32:26;4.00;;;3.60;;
2480;SDS011;57396;48.742;9.128;2022-07-12T03:34:51;8.20;;;4.03;;
2480;SDS011;57396;48.742;9.128;2022-07-12T03:37:17;5.17;;;4.03;;
2480;SDS011;57396;48.742;9.128;2022-07-12T03:39:42;4.20;;;3.80;;
2480;SDS011;57396;48.742;9.128;2022-07-12T03:42:08;5.07;;;3.90;;
2480;SDS011;57396;48.742;9.128;2022-07-12T03:44:33;4.60;;;3.90;;
2480;SDS011;57396;48.742;9.128;2022-07-12T03:46:59;4.10;;;3.80;;
2480;SDS011;57396;48.742;9.128;2022-07-12T03:49:25;4.27;;;3.70;;
2480;SDS011;57396;48.742;9.128;2022-07-12T03:51:50;4.37;;;3.90;;
2480;SDS011;57396;48.742;9.128;2022-07-12T03:54:16;5.50;;;3.70;;
2480;SDS011;57396;48.742;9.128;2022-07-12T03:56:41;4.33;;;3.70;;
2480;SDS011;57396;48.742;9.128;2022-07-12T03:59:25;11.70;;;4.77;;
2480;SDS011;57396;48.742;9.128;2022-07-12T04:01:50;6.80;;;4.50;;
2480;SDS011;57396;48.742;9.128;2022-07-12T04:04:16;5.97;;;5.10;;
2480;SDS011;57396;48.742;9.128;2022-07-12T04:06:41;6.53;;;5.80;;
2480;SDS011;57396;48.742;9.128;2022-07-12T04:09:07;4.47;;;4.07;;
2480;SDS011;57396;48.742;9.128;2022-07-12T04:11:32;4.30;;;3.90;;
2480;SDS011;57396;48.742;9.128;2022-07-12T04:13:58;4.53;;;4.13;;
2480;SDS011;57396;48.742;9.128;2022-07-12T04:16:24;3.77;;;3.47;;
2480;SDS011;57396;48.742;9.128;2022-07-12T04:18:50;5.27;;;4.47;;
2480;SDS011;57396;48.742;9.128;2022-07-12T04:21:15;4.67;;;4.27;;
2480;SDS011;57396;48.742;9.128;2022-07-12T04:23:41;4.07;;;3.70;;
2480;SDS011;57396;48.742;9.128;2022-07-12T04:26:06;4.40;;;4.10;;
2480;SDS011;57396;48.742;9.128;2022-07-12T04:28:32;5.20;;;4.70;;
2480;SDS011;57396;48.742;9.128;2022-07-12T04:30:57;5.53;;;4.70;;
2480;SDS011;57396;48.742;9.128;2022-07-12T04:33:23;5.60;;;5.10;;
2480;SDS011;57396;48.742;9.128;2022-07-12T04:35:49;4.53;;;4.13;;
2480;SDS011;57396;48.742;9.128;2022-07-12T04:38:14;5.10;;;3.87;;
2480;SDS011;57396;48.742;9.128;2022-07-12T04:40:40;5.70;;;4.50;;
2480;SDS011;57396;48.742;9.128;2022-07-12T04:43:05;4.73;;;3.67;;
2480;SDS011;57396;48.742;9.128;2022-07-12T04:45:31;4.43;;;3.93;;
2480;SDS011;57396;48.742;9.128;2022-07-12T04:47:56;4.90;;;4.13;;
2480;SDS011;57396;48.742;9.128;2022-07-12T04:50:22;5.70;;;3.90;;
2480;SDS011;57396;48.742;9.128;2022-07-12T04:52:47;4.33;;;3.93;;
2480;SDS011;57396;48.742;9.128;2022-07-12T04:55:12;5.00;;;3.90;;
2480;SDS011;57396;48.742;9.128;2022-07-12T04:57:38;5.47;;;4.00;;
2480;SDS011;57396;48.742;9.128;2022-07-12T05:00:04;4.27;;;3.87;;
2480;SDS011;57396;48.742;9.128;2022-07-12T05:02:31;4.87;;;4.47;;
2480;SDS011;57396;48.742;9.128;2022-07-12T05:04:57;4.80;;;4.00;;
2480;SDS011;57396;48.742;9.128;2022-07-12T05:07:22;3.90;;;3.60;;
2480;SDS011;57396;48.742;9.128;2022-07-12T05:09:48;5.10;;;3.97;;
2480;SDS011;57396;48.742;9.128;2022-07-12T05:12:13;4.60;;;3.43;;
2480;SDS011;57396;48.742;9.128;2022-07-12T05:14:39;4.47;;;4.07;;
2480;SDS011;57396;48.742;9.128;2022-07-12T05:17:04;4.87;;;3.87;;
2480;SDS011;57396;48.742;9.128;2022-07-12T05:19:30;4.10;;;3.70;;
2480;SDS011;57396;48.742;9.128;2022-07-12T05:21:55;5.77;;;3.63;;
2480;SDS011;57396;48.742;9.128;2022-07-12T05:24:21;5.67;;;3.97;;
2480;SDS011;57396;48.742;9.128;2022-07-12T05:26:46;5.93;;;3.57;;
2480;SDS011;57396;48.742;9.128;2022-07-12T05:29:12;3.97;;;3.67;;
2480;SDS011;57396;48.742;9.128;2022-07-12T05:31:37;4.20;;;3.83;;
2480;SDS011;57396;48.742;9.128;2022-07-12T05:34:03;3.73;;;3.43;;
2480;SDS011;57396;48.742;9.128;2022-07-12T05:36:28;3.50;;;3.27;;
2480;SDS011;57396;48.742;9.128;2022-07-12T05:38:53;4.43;;;4.03;;
2480;SDS011;57396;48.742;9.128;2022-07-12T05:41:19;3.50;;;3.20;;
2480;SDS011;57396;48.742;9.128;2022-07-12T05:43:45;4.20;;;3.80;;
2480;SDS011;57396;48.742;9.128;2022-07-12T05:46:10;4.23;;;3.80;;
2480;SDS011;57396;48.742;9.128;2022-07-12T05:48:36;3.53;;;3.17;;
2480;SDS011;57396;48.742;9.128;2022-07-12T05:51:02;4.30;;;3.60;;
2480;SDS011;57396;48.742;9.128;2022-07-12T05:53:46;4.20;;;3.57;;
2480;SDS011;57396;48.742;9.128;2022-07-12T05:56:11;3.57;;;3.27;;
2480;SDS011;57396;48.742;9.128;2022-07-12T05:58:37;4.00;;;3.50;;
2480;SDS011;57396;48.742;9.128;2022-07-12T06:01:02;3.60;;;3.30;;
2480;SDS011;57396;48.742;9.128;2022-07-12T06:03:28;3.30;;;3.00;;
2480;SDS011;57396;48.742;9.128;2022-07-12T06:05:53;4.57;;;3.50;;
2480;SDS011;57396;48.742;9.128;2022-07-12T06:08:19;4.53;;;3.30;;
2480;SDS011;57396;48.742;9.128;2022-07-12T06:10:44;3.60;;;2.90;;
2480;SDS011;57396;48.742;9.128;2022-07-12T06:13:10;4.00;;;2.70;;
2480;SDS011;57396;48.742;9.128;2022-07-12T06:15:35;4.60;;;3.10;;
2480;SDS011;57396;48.742;9.128;2022-07-12T06:18:02;2.80;;;2.60;;
2480;SDS011;57396;48.742;9.128;2022-07-12T06:20:28;2.60;;;2.40;;
2480;SDS011;57396;48.742;9.128;2022-07-12T06:22:53;3.97;;;3.07;;
2480;SDS011;57396;48.742;9.128;2022-07-12T06:25:19;4.03;;;2.40;;
2480;SDS011;57396;48.742;9.128;2022-07-12T06:27:44;2.70;;;2.57;;
2480;SDS011;57396;48.742;9.128;2022-07-12T06:30:13;3.43;;;3.10;;
2480;SDS011;57396;48.742;9.128;2022-07-12T06:32:40;3.37;;;2.57;;
2480;SDS011;57396;48.742;9.128;2022-07-12T06:35:05;3.10;;;2.40;;
2480;SDS011;57396;48.742;9.128;2022-07-12T06:37:31;3.40;;;2.60;;
2480;SDS011;57396;48.742;9.128;2022-07-12T06:39:57;3.57;;;2.47;;
2480;SDS011;57396;48.742;9.128;2022-07-12T06:42:22;4.50;;;2.40;;
2480;SDS011;57396;48.742;9.128;2022-07-12T06:44:48;3.50;;;2.43;;
2480;SDS011;57396;48.742;9.128;2022-07-12T06:47:13;8.47;;;2.13;;
2480;SDS011;57396;48.742;9.128;2022-07-12T06:49:38;5.20;;;2.13;;
2480;SDS011;57396;48.742;9.128;2022-07-12T06:52:04;3.00;;;1.90;;
2480;SDS011;57396;48.742;9.128;2022-07-12T06:54:30;3.80;;;2.20;;
2480;SDS011;57396;48.742;9.128;2022-07-12T06:56:55;4.57;;;2.07;;
2480;SDS011;57396;48.742;9.128;2022-07-12T06:59:21;3.00;;;2.10;;
2480;SDS011;57396;48.742;9.128;2022-07-12T07:01:46;4.20;;;1.90;;
2480;SDS011;57396;48.742;9.128;2022-07-12T07:04:12;6.20;;;2.03;;
2480;SDS011;57396;48.742;9.128;2022-07-12T07:06:37;3.70;;;2.03;;
2480;SDS011;57396;48.742;9.128;2022-07-12T07:09:02;2.47;;;1.60;;
2480;SDS011;57396;48.742;9.128;2022-07-12T07:11:32;1.80;;;1.20;;
2480;SDS011;57396;48.742;9.128;2022-07-12T07:13:58;1.33;;;1.23;;
2480;SDS011;57396;48.742;9.128;2022-07-12T07:16:23;5.27;;;1.80;;
2480;SDS011;57396;48.742;9.128;2022-07-12T07:18:49;4.97;;;1.60;;
2480;SDS011;57396;48.742;9.128;2022-07-12T07:21:15;1.73;;;1.57;;
2480;SDS011;57396;48.742;9.128;2022-07-12T07:23:41;2.57;;;1.40;;
2480;SDS011;57396;48.742;9.128;2022-07-12T07:26:06;1.53;;;1.43;;
2480;SDS011;57396;48.742;9.128;2022-07-12T07:28:31;3.90;;;1.80;;
2480;SDS011;57396;48.742;9.128;2022-07-12T07:30:57;1.60;;;1.47;;
2480;SDS011;57396;48.742;9.128;2022-07-12T07:33:24;3.23;;;1.40;;
2480;SDS011;57396;48.742;9.128;2022-07-12T07:35:50;2.50;;;1.50;;
2480;SDS011;57396;48.742;9.128;2022-07-12T07:38:16;1.80;;;1.60;;
2480;SDS011;57396;48.742;9.128;2022-07-12T07:40:42;2.47;;;1.70;;
2480;SDS011;57396;48.742;9.128;2022-07-12T07:43:08;1.60;;;1.50;;
2480;SDS011;57396;48.742;9.128;2022-07-12T07:45:33;2.10;;;1.50;;
2480;SDS011;57396;48.742;9.128;2022-07-12T07:47:59;3.20;;;1.90;;
2480;SDS011;57396;48.742;9.128;2022-07-12T07:50:24;3.53;;;1.70;;
2480;SDS011;57396;48.742;9.128;2022-07-12T07:52:50;2.13;;;1.93;;
2480;SDS011;57396;48.742;9.128;2022-07-12T07:55:16;1.83;;;1.63;;
2480;SDS011;57396;48.742;9.128;2022-07-12T07:57:42;1.80;;;1.70;;
2480;SDS011;57396;48.742;9.128;2022-07-12T08:00:08;2.37;;;2.10;;
2480;SDS011;57396;48.742;9.128;2022-07-12T08:02:34;1.73;;;0.87;;
2480;SDS011;57396;48.742;9.128;2022-07-12T08:04:59;1.30;;;0.90;;
2480;SDS011;57396;48.742;9.128;2022-07-12T08:07:25;1.20;;;0.90;;
2480;SDS011;57396;48.742;9.128;2022-07-12T08:09:50;1.30;;;1.00;;
2480;SDS011;57396;48.742;9.128;2022-07-12T08:12:16;3.57;;;1.03;;
2480;SDS011;57396;48.742;9.128;2022-07-12T08:14:41;1.20;;;0.70;;
2480;SDS011;57396;48.742;9.128;2022-07-12T08:17:07;1.20;;;0.90;;
2480;SDS011;57396;48.742;9.128;2022-07-12T08:19:32;4.93;;;1.27;;
2480;SDS011;57396;48.742;9.128;2022-07-12T08:21:58;1.10;;;0.80;;
2480;SDS011;57396;48.742;9.128;2022-07-12T08:24:24;3.10;;;0.90;;
2480;SDS011;57396;48.742;9.128;2022-07-12T08:26:49;2.40;;;1.20;;
2480;SDS011;57396;48.742;9.128;2022-07-12T08:29:15;1.87;;;1.47;;
2480;SDS011;57396;48.742;9.128;2022-07-12T08:31:41;3.00;;;0.93;;
2480;SDS011;57396;48.742;9.128;2022-07-12T08:34:06;2.23;;;0.70;;
2480;SDS011;57396;48.742;9.128;2022-07-12T08:36:32;1.00;;;0.80;;
2480;SDS011;57396;48.742;9.128;2022-07-12T08:38:58;1.80;;;1.70;;
2480;SDS011;57396;48.742;9.128;2022-07-12T08:41:23;1.10;;;1.00;;
2480;SDS011;57396;48.742;9.128;2022-07-12T08:43:49;2.33;;;1.00;;
2480;SDS011;57396;48.742;9.128;2022-07-12T08:46:14;1.10;;;1.00;;
2480;SDS011;57396;48.742;9.128;2022-07-12T08:48:41;1.10;;;0.90;;
2480;SDS011;57396;48.742;9.128;2022-07-12T08:51:11;3.43;;;0.80;;
2480;SDS011;57396;48.742;9.128;2022-07-12T08:53:38;1.60;;;1.10;;
2480;SDS011;57396;48.742;9.128;2022-07-12T08:56:04;3.53;;;0.70;;
2480;SDS011;57396;48.742;9.128;2022-07-12T08:58:30;1.80;;;1.70;;
2480;SDS011;57396;48.742;9.128;2022-07-12T09:00:55;2.00;;;1.90;;
2480;SDS011;57396;48.742;9.128;2022-07-12T09:03:21;2.70;;;1.97;;
2480;SDS011;57396;48.742;9.128;2022-07-12T09:05:48;3.13;;;1.10;;
2480;SDS011;57396;48.742;9.128;2022-07-12T09:08:29;2.90;;;0.90;;
2480;SDS011;57396;48.742;9.128;2022-07-12T09:10:59;5.20;;;4.70;;
2480;SDS011;57396;48.742;9.128;2022-07-12T09:16:22;2.40;;;1.50;;
2480;SDS011;57396;48.742;9.128;2022-07-12T09:18:49;2.67;;;2.47;;
2480;SDS011;57396;48.742;9.128;2022-07-12T09:21:22;2.23;;;1.90;;
2480;SDS011;57396;48.742;9.128;2022-07-12T09:24:06;1.30;;;1.03;;
2480;SDS011;57396;48.742;9.128;2022-07-12T09:26:32;1.13;;;0.93;;
2480;SDS011;57396;48.742;9.128;2022-07-12T09:29:04;1.90;;;1.00;;
2480;SDS011;57396;48.742;9.128;2022-07-12T09:31:43;4.10;;;1.20;;
2480;SDS011;57396;48.742;9.128;2022-07-12T09:34:31;1.17;;;1.07;;
2480;SDS011;57396;48.742;9.128;2022-07-12T09:37:15;3.40;;;1.30;;
2480;SDS011;57396;48.742;9.128;2022-07-12T09:39:42;1.63;;;1.10;;
2480;SDS011;57396;48.742;9.128;2022-07-12T09:42:08;1.27;;;1.17;;
2480;SDS011;57396;48.742;9.128;2022-07-12T09:44:35;1.10;;;1.00;;
2480;SDS011;57396;48.742;9.128;2022-07-12T09:47:01;2.30;;;1.20;;
2480;SDS011;57396;48.742;9.128;2022-07-12T09:49:27;3.57;;;1.00;;
2480;SDS011;57396;48.742;9.128;2022-07-12T09:51:54;1.10;;;1.00;;
2480;SDS011;57396;48.742;9.128;2022-07-12T09:54:22;1.60;;;0.90;;
2480;SDS011;57396;48.742;9.128;2022-07-12T09:56:52;2.50;;;0.83;;
2480;SDS011;57396;48.742;9.128;2022-07-12T09:59:20;5.00;;;0.90;;
2480;SDS011;57396;48.742;9.128;2022-07-12T10:01:48;9.03;;;0.83;;
2480;SDS011;57396;48.742;9.128;2022-07-12T10:04:14;1.10;;;0.70;;
2480;SDS011;57396;48.742;9.128;2022-07-12T10:06:40;1.07;;;0.90;;
2480;SDS011;57396;48.742;9.128;2022-07-12T10:09:06;1.43;;;0.90;;
2480;SDS011;57396;48.742;9.128;2022-07-12T10:11:31;1.73;;;1.00;;
2480;SDS011;57396;48.742;9.128;2022-07-12T10:13:57;0.90;;;0.70;;
2480;SDS011;57396;48.742;9.128;2022-07-12T10:16:26;1.87;;;0.90;;
2480;SDS011;57396;48.742;9.128;2022-07-12T10:22:18;1.40;;;0.70;;
2480;SDS011;57396;48.742;9.128;2022-07-12T10:24:48;10.63;;;0.80;;
2480;SDS011;57396;48.742;9.128;2022-07-12T10:29:40;2.70;;;0.90;;
2480;SDS011;57396;48.742;9.128;2022-07-12T10:32:24;1.00;;;0.80;;
2480;SDS011;57396;48.742;9.128;2022-07-12T10:35:01;1.37;;;1.00;;
2480;SDS011;57396;48.742;9.128;2022-07-12T10:37:28;1.83;;;1.10;;
2480;SDS011;57396;48.742;9.128;2022-07-12T10:45:28;1.60;;;1.10;;
2480;SDS011;57396;48.742;9.128;2022-07-12T10:47:58;3.30;;;2.97;;
2480;SDS011;57396;48.742;9.128;2022-07-12T11:01:04;6.23;;;4.40;;
2480;SDS011;57396;48.742;9.128;2022-07-12T11:03:31;1.87;;;0.80;;
2480;SDS011;57396;48.742;9.128;2022-07-12T11:06:02;3.23;;;1.00;;
2480;SDS011;57396;48.742;9.128;2022-07-12T11:08:29;1.23;;;0.90;;
2480;SDS011;57396;48.742;9.128;2022-07-12T11:10:55;1.40;;;0.70;;
2480;SDS011;57396;48.742;9.128;2022-07-12T11:13:22;1.80;;;0.97;;
2480;SDS011;57396;48.742;9.128;2022-07-12T11:15:58;1.93;;;0.80;;
2480;SDS011;57396;48.742;9.128;2022-07-12T11:18:27;0.90;;;0.63;;
2480;SDS011;57396;48.742;9.128;2022-07-12T11:20:57;1.03;;;0.80;;
2480;SDS011;57396;48.742;9.128;2022-07-12T11:23:24;1.00;;;0.90;;
2480;SDS011;57396;48.742;9.128;2022-07-12T11:25:50;1.00;;;0.80;;
2480;SDS011;57396;48.742;9.128;2022-07-12T11:28:17;1.07;;;0.60;;
2480;SDS011;57396;48.742;9.128;2022-07-12T11:30:49;1.00;;;0.73;;
2480;SDS011;57396;48.742;9.128;2022-07-12T11:33:15;0.93;;;0.70;;
2480;SDS011;57396;48.742;9.128;2022-07-12T11:35:42;1.00;;;0.70;;
2480;SDS011;57396;48.742;9.128;2022-07-12T11:38:09;0.80;;;0.57;;
2480;SDS011;57396;48.742;9.128;2022-07-12T11:40:35;0.80;;;0.60;;
2480;SDS011;57396;48.742;9.128;2022-07-12T11:43:01;1.10;;;0.80;;
2480;SDS011;57396;48.742;9.128;2022-07-12T11:45:28;6.50;;;0.70;;
2480;SDS011;57396;48.742;9.128;2022-07-12T11:47:55;1.77;;;0.93;;
2480;SDS011;57396;48.742;9.128;2022-07-12T11:50:22;1.13;;;0.70;;
2480;SDS011;57396;48.742;9.128;2022-07-12T11:52:48;2.70;;;0.60;;
2480;SDS011;57396;48.742;9.128;2022-07-12T11:55:13;1.10;;;0.73;;
2480;SDS011;57396;48.742;9.128;2022-07-12T11:57:39;0.90;;;0.60;;
2480;SDS011;57396;48.742;9.128;2022-07-12T12:00:14;2.43;;;0.70;;
2480;SDS011;57396;48.742;9.128;2022-07-12T12:02:44;2.80;;;0.60;;
2480;SDS011;57396;48.742;9.128;2022-07-12T12:05:10;1.00;;;0.60;;
2480;SDS011;57396;48.742;9.128;2022-07-12T12:07:35;1.67;;;0.70;;
2480;SDS011;57396;48.742;9.128;2022-07-12T12:10:02;1.30;;;1.00;;
2480;SDS011;57396;48.742;9.128;2022-07-12T12:13:02;2.00;;;0.60;;
2480;SDS011;57396;48.742;9.128;2022-07-12T12:15:22;1.30;;;1.00;;
2480;SDS011;57396;48.742;9.128;2022-07-12T12:17:53;1.60;;;0.90;;
2480;SDS011;57396;48.742;9.128;2022-07-12T12:20:20;1.20;;;0.77;;
2480;SDS011;57396;48.742;9.128;2022-07-12T12:22:47;1.30;;;0.80;;
2480;SDS011;57396;48.742;9.128;2022-07-12T12:25:14;0.87;;;0.57;;
2480;SDS011;57396;48.742;9.128;2022-07-12T12:27:41;1.37;;;1.27;;
2480;SDS011;57396;48.742;9.128;2022-07-12T12:30:07;1.60;;;0.73;;
2480;SDS011;57396;48.742;9.128;2022-07-12T12:32:45;1.20;;;1.00;;
2480;SDS011;57396;48.742;9.128;2022-07-12T12:38:00;1.57;;;0.60;;
2480;SDS011;57396;48.742;9.128;2022-07-12T12:40:28;4.60;;;0.70;;
2480;SDS011;57396;48.742;9.128;2022-07-12T12:43:11;3.00;;;1.37;;
2480;SDS011;57396;48.742;9.128;2022-07-12T12:45:54;1.10;;;0.90;;
2480;SDS011;57396;48.742;9.128;2022-07-12T12:48:20;3.57;;;0.67;;
2480;SDS011;57396;48.742;9.128;2022-07-12T12:50:48;1.00;;;0.60;;
2480;SDS011;57396;48.742;9.128;2022-07-12T12:55:50;1.47;;;0.90;;
2480;SDS011;57396;48.742;9.128;2022-07-12T12:58:17;1.00;;;0.80;;
2480;SDS011;57396;48.742;9.128;2022-07-12T13:00:44;2.33;;;2.17;;
2480;SDS011;57396;48.742;9.128;2022-07-12T13:03:12;5.23;;;4.83;;
2480;SDS011;57396;48.742;9.128;2022-07-12T13:05:38;0.90;;;0.73;;
2480;SDS011;57396;48.742;9.128;2022-07-12T13:08:04;1.10;;;0.70;;
2480;SDS011;57396;48.742;9.128;2022-07-12T13:10:32;2.33;;;0.73;;
2480;SDS011;57396;48.742;9.128;2022-07-12T13:12:58;1.20;;;0.67;;
2480;SDS011;57396;48.742;9.128;2022-07-12T13:15:27;6.47;;;3.53;;
2480;SDS011;57396;48.742;9.128;2022-07-12T13:17:53;1.40;;;0.60;;
2480;SDS011;57396;48.742;9.128;2022-07-12T13:20:19;2.70;;;1.53;;
2480;SDS011;57396;48.742;9.128;2022-07-12T13:22:44;7.03;;;4.60;;
2480;SDS011;57396;48.742;9.128;2022-07-12T13:25:11;5.33;;;1.90;;
2480;SDS011;57396;48.742;9.128;2022-07-12T13:27:37;0.80;;;0.67;;
2480;SDS011;57396;48.742;9.128;2022-07-12T13:30:03;3.97;;;0.80;;
2480;SDS011;57396;48.742;9.128;2022-07-12T13:32:31;1.30;;;0.63;;
2480;SDS011;57396;48.742;9.128;2022-07-12T13:34:56;2.13;;;0.67;;
2480;SDS011;57396;48.742;9.128;2022-07-12T13:37:21;1.83;;;1.20;;
2480;SDS011;57396;48.742;9.128;2022-07-12T13:39:47;1.37;;;1.00;;
2480;SDS011;57396;48.742;9.128;2022-07-12T13:42:31;1.10;;;0.70;;
2480;SDS011;57396;48.742;9.128;2022-07-12T13:44:57;1.97;;;1.00;;
2480;SDS011;57396;48.742;9.128;2022-07-12T13:47:22;2.20;;;1.33;;
2480;SDS011;57396;48.742;9.128;2022-07-12T13:49:49;1.07;;;0.80;;
2480;SDS011;57396;48.742;9.128;2022-07-12T13:52:14;3.27;;;2.10;;
2480;SDS011;57396;48.742;9.128;2022-07-12T13:54:40;1.70;;;0.77;;
2480;SDS011;57396;48.742;9.128;2022-07-12T13:57:06;0.90;;;0.60;;
2480;SDS011;57396;48.742;9.128;2022-07-12T13:59:32;1.00;;;0.70;;
2480;SDS011;57396;48.742;9.128;2022-07-12T14:01:58;1.47;;;0.60;;
2480;SDS011;57396;48.742;9.128;2022-07-12T14:04:23;2.23;;;1.10;;
2480;SDS011;57396;48.742;9.128;2022-07-12T14:06:49;2.70;;;0.77;;
2480;SDS011;57396;48.742;9.128;2022-07-12T14:09:14;2.10;;;0.80;;
2480;SDS011;57396;48.742;9.128;2022-07-12T14:11:40;0.80;;;0.57;;
2480;SDS011;57396;48.742;9.128;2022-07-12T14:14:06;3.10;;;0.60;;
2480;SDS011;57396;48.742;9.128;2022-07-12T14:16:32;1.10;;;0.60;;
2480;SDS011;57396;48.742;9.128;2022-07-12T14:18:57;0.80;;;0.60;;
2480;SDS011;57396;48.742;9.128;2022-07-12T14:21:23;0.90;;;0.70;;
2480;SDS011;57396;48.742;9.128;2022-07-12T14:23:48;2.73;;;0.60;;
2480;SDS011;57396;48.742;9.128;2022-07-12T14:26:14;1.10;;;0.50;;
2480;SDS011;57396;48.742;9.128;2022-07-12T14:28:39;3.33;;;0.80;;
2480;SDS011;57396;48.742;9.128;2022-07-12T14:31:05;3.03;;;0.60;;
2480;SDS011;57396;48.742;9.128;2022-07-12T14:33:30;4.53;;;0.80;;
2480;SDS011;57396;48.742;9.128;2022-07-12T14:35:56;2.07;;;0.70;;
2480;SDS011;57396;48.742;9.128;2022-07-12T14:38:21;1.00;;;0.90;;
2480;SDS011;57396;48.742;9.128;2022-07-12T14:40:47;1.20;;;0.80;;
2480;SDS011;57396;48.742;9.128;2022-07-12T14:43:12;1.00;;;0.80;;
2480;SDS011;57396;48.742;9.128;2022-07-12T14:45:38;1.53;;;0.60;;
2480;SDS011;57396;48.742;9.128;2022-07-12T14:48:03;1.80;;;0.63;;
2480;SDS011;57396;48.742;9.128;2022-07-12T14:50:29;1.63;;;0.60;;
2480;SDS011;57396;48.742;9.128;2022-07-12T14:52:54;1.17;;;0.60;;
2480;SDS011;57396;48.742;9.128;2022-07-12T14:55:20;3.43;;;0.60;;
2480;SDS011;57396;48.742;9.128;2022-07-12T14:57:45;1.77;;;0.80;;
2480;SDS011;57396;48.742;9.128;2022-07-12T15:00:11;9.50;;;0.70;;
2480;SDS011;57396;48.742;9.128;2022-07-12T15:02:38;1.00;;;0.60;;
2480;SDS011;57396;48.742;9.128;2022-07-12T15:05:03;1.10;;;0.60;;
2480;SDS011;57396;48.742;9.128;2022-07-12T15:07:31;1.33;;;0.70;;
2480;SDS011;57396;48.742;9.128;2022-07-12T15:09:56;1.50;;;0.70;;
2480;SDS011;57396;48.742;9.128;2022-07-12T15:12:23;3.03;;;1.00;;
2480;SDS011;57396;48.742;9.128;2022-07-12T15:14:49;2.10;;;0.60;;
2480;SDS011;57396;48.742;9.128;2022-07-12T15:17:14;1.00;;;0.60;;
2480;SDS011;57396;48.742;9.128;2022-07-12T15:19:46;3.73;;;0.70;;
2480;SDS011;57396;48.742;9.128;2022-07-12T15:22:12;3.00;;;0.70;;
2480;SDS011;57396;48.742;9.128;2022-07-12T15:24:38;2.10;;;0.60;;
2480;SDS011;57396;48.742;9.128;2022-07-12T15:27:04;1.43;;;0.60;;